Time;durP1;ratioP1;P1;durP2;ratioP2;P2;SDS_P1;SDS_P2;PMS_P1;PMS_P2;Temp;Humidity;BMP_temperature;BMP_pressure;BME280_temperature;BME280_humidity;BME280_pressure;Samples;Min_cycle;Max_cycle;Signal;HPM_P1;HPM_P2
2023/12/05 00:00:12;;;;;;;20.50;16.02;;;;;;;-0.28;72.88;97319.44;4968696;28;20038;-71
2023/12/05 00:02:38;;;;;;;17.63;15.18;;;;;;;-0.32;72.83;97326.16;4969822;28;20042;-71
2023/12/05 00:05:03;;;;;;;16.92;15.10;;;;;;;-0.29;72.12;97322.28;4950323;28;20039;-71
2023/12/05 00:07:29;;;;;;;18.15;15.23;;;;;;;-0.19;72.88;97333.31;4952505;28;20031;-71
2023/12/05 00:09:54;;;;;;;19.55;15.73;;;;;;;-0.18;72.12;97330.47;4970777;28;20027;-71
2023/12/05 00:12:19;;;;;;;19.17;14.88;;;;;;;-0.17;72.16;97324.19;4970797;28;20451;-71
2023/12/05 00:14:45;;;;;;;18.65;15.85;;;;;;;-0.18;72.47;97316.44;4969598;28;20097;-71
2023/12/05 00:17:10;;;;;;;18.10;15.20;;;;;;;-0.23;72.66;97301.16;4970125;28;20037;-72
2023/12/05 00:19:35;;;;;;;21.35;16.52;;;;;;;-0.15;72.88;97323.97;4951243;28;20053;-71
2023/12/05 00:22:01;;;;;;;19.80;13.75;;;;;;;-0.35;73.22;97308.00;4971696;28;20023;-72
2023/12/05 00:24:26;;;;;;;19.90;16.42;;;;;;;-0.24;72.77;97326.00;4932844;28;20039;-72
2023/12/05 00:26:52;;;;;;;19.48;16.38;;;;;;;-0.22;73.63;97329.25;4971195;28;20502;-72
2023/12/05 00:29:17;;;;;;;22.17;17.08;;;;;;;-0.26;73.15;97328.03;4963812;28;20094;-72
2023/12/05 00:31:43;;;;;;;19.05;16.95;;;;;;;-0.33;74.03;97319.25;4970899;28;20033;-71
2023/12/05 00:34:08;;;;;;;20.67;17.83;;;;;;;-0.32;74.66;97323.50;4944898;29;20507;-72
2023/12/05 00:36:34;;;;;;;23.60;18.42;;;;;;;-0.40;73.88;97299.06;4968961;28;20023;-71
2023/12/05 00:38:59;;;;;;;21.63;18.00;;;;;;;-0.33;74.46;97311.31;4966682;28;20031;-72
2023/12/05 00:41:27;;;;;;;22.98;19.08;;;;;;;-0.40;74.69;97321.03;4971417;28;20033;-72
2023/12/05 00:43:53;;;;;;;23.75;19.10;;;;;;;-0.41;74.56;97323.88;4965612;28;20042;-72
2023/12/05 00:46:18;;;;;;;21.92;18.83;;;;;;;-0.49;75.04;97314.25;4967413;28;20049;-71
2023/12/05 00:48:43;;;;;;;24.85;19.02;;;;;;;-0.47;75.51;97330.78;4963144;28;20030;-71
2023/12/05 00:51:09;;;;;;;23.77;19.23;;;;;;;-0.58;76.00;97312.78;4967279;28;20505;-71
2023/12/05 00:53:34;;;;;;;23.92;19.20;;;;;;;-0.50;75.78;97310.00;4951723;28;20515;-71
2023/12/05 00:56:00;;;;;;;23.25;19.08;;;;;;;-0.63;75.69;97296.69;4961905;28;20375;-71
2023/12/05 00:58:25;;;;;;;21.23;18.88;;;;;;;-0.60;76.76;97304.25;4947501;28;20078;-73
2023/12/05 01:00:51;;;;;;;22.65;19.23;;;;;;;-0.54;76.44;97314.06;4954158;28;20085;-72
2023/12/05 01:03:16;;;;;;;22.38;19.35;;;;;;;-0.51;76.37;97308.34;4968213;28;20031;-71
2023/12/05 01:05:42;;;;;;;22.02;18.15;;;;;;;-0.56;76.99;97294.13;4971509;28;20376;-71
2023/12/05 01:08:07;;;;;;;21.30;18.10;;;;;;;-0.53;76.56;97302.44;4968056;28;20043;-71
2023/12/05 01:10:33;;;;;;;21.77;18.00;;;;;;;-0.54;76.84;97303.47;4968123;28;20022;-71
2023/12/05 01:12:58;;;;;;;22.63;19.30;;;;;;;-0.50;76.47;97303.88;4932722;28;20634;-71
2023/12/05 01:15:23;;;;;;;23.30;16.08;;;;;;;-0.77;77.03;97276.53;4971225;28;20027;-71
2023/12/05 01:17:49;;;;;;;21.75;18.38;;;;;;;-0.55;77.22;97301.00;4952157;28;20038;-71
2023/12/05 01:20:15;;;;;;;22.45;20.02;;;;;;;-0.59;76.95;97287.38;4965874;28;20081;-71
2023/12/05 01:22:41;;;;;;;24.88;20.42;;;;;;;-0.59;77.32;97300.59;4955010;28;20526;-71
2023/12/05 01:25:09;;;;;;;24.58;20.77;;;;;;;-0.62;77.99;97301.00;4973600;28;20046;-70
2023/12/05 01:27:34;;;;;;;23.17;20.33;;;;;;;-0.60;78.08;97298.13;4970799;28;20046;-70
2023/12/05 01:30:00;;;;;;;25.73;21.00;;;;;;;-0.66;78.25;97289.19;4973969;28;20030;-70
2023/12/05 01:32:25;;;;;;;24.50;20.48;;;;;;;-0.65;78.59;97296.09;4951812;28;20122;-71
2023/12/05 01:34:50;;;;;;;24.48;20.70;;;;;;;-0.74;78.89;97276.13;4974093;28;20022;-71
2023/12/05 01:37:16;;;;;;;24.98;16.58;;;;;;;-0.76;78.83;97280.78;4966455;28;20054;-70
2023/12/05 01:39:41;;;;;;;23.58;20.45;;;;;;;-0.63;78.68;97278.19;4975545;28;20026;-70
2023/12/05 01:42:07;;;;;;;25.67;20.08;;;;;;;-0.63;79.19;97266.84;4948039;29;20106;-70
2023/12/05 01:44:32;;;;;;;25.20;20.23;;;;;;;-0.58;79.52;97265.22;4938904;28;20562;-70
2023/12/05 01:46:58;;;;;;;23.92;19.67;;;;;;;-0.61;79.32;97255.06;4952415;28;20041;-70
2023/12/05 01:49:24;;;;;;;25.02;19.85;;;;;;;-0.66;79.78;97252.19;4973854;28;20057;-72
2023/12/05 01:51:52;;;;;;;22.00;19.55;;;;;;;-0.51;80.46;97266.06;4968431;28;20042;-72
2023/12/05 01:54:17;;;;;;;26.45;16.77;;;;;;;-0.52;79.65;97268.91;4974286;28;20026;-72
2023/12/05 01:56:43;;;;;;;22.02;18.67;;;;;;;-0.50;80.53;97249.19;4972278;28;20042;-72
2023/12/05 01:59:08;;;;;;;22.45;17.95;;;;;;;-0.38;79.96;97271.41;4973576;28;20037;-72
2023/12/05 02:01:34;;;;;;;20.40;17.48;;;;;;;-0.43;80.28;97252.66;4957855;28;20045;-71
2023/12/05 02:03:59;;;;;;;21.90;17.73;;;;;;;-0.36;80.61;97272.03;4973580;28;20030;-72
2023/12/05 02:06:26;;;;;;;20.50;18.05;;;;;;;-0.34;81.06;97261.22;4950865;28;20070;-72
2023/12/05 02:08:52;;;;;;;21.10;18.17;;;;;;;-0.37;81.27;97261.63;4974642;28;20416;-72
2023/12/05 02:11:18;;;;;;;23.10;18.85;;;;;;;-0.32;80.57;97253.91;4917405;28;20042;-71
2023/12/05 02:13:43;;;;;;;22.05;18.23;;;;;;;-0.27;80.22;97264.72;4973110;28;20422;-71
2023/12/05 02:16:22;;;;;;;22.08;18.27;;;;;;;-0.28;80.43;97244.59;4947027;29;20051;-71
2023/12/05 02:18:56;;;;;;;22.98;19.35;;;;;;;-0.22;80.26;97249.88;4967767;28;20504;-71
2023/12/05 02:21:28;;;;;;;21.95;18.88;;;;;;;-0.11;80.87;97259.88;4955166;28;20113;-71
2023/12/05 02:24:31;;;;;;;22.17;18.90;;;;;;;-0.15;81.03;97245.44;4957774;28;20050;-71
2023/12/05 02:27:12;;;;;;;21.98;17.98;;;;;;;-0.15;80.61;97231.38;4966364;28;20062;-71
2023/12/05 02:29:50;;;;;;;22.45;18.90;;;;;;;-0.04;80.37;97241.34;4950188;28;20542;-71
2023/12/05 02:32:16;;;;;;;22.55;18.05;;;;;;;-0.15;81.31;97228.72;4973789;28;20057;-71
2023/12/05 02:34:42;;;;;;;20.73;18.02;;;;;;;-0.03;80.84;97237.72;4971167;28;20023;-71
2023/12/05 02:37:18;;;;;;;21.83;18.45;;;;;;;-0.01;81.24;97236.50;4946961;29;20039;-71
2023/12/05 02:39:52;;;;;;;22.17;18.63;;;;;;;0.06;80.75;97248.91;4969754;28;20101;-70
2023/12/05 02:42:20;;;;;;;25.05;19.55;;;;;;;0.00;81.28;97232.81;4938944;28;20057;-70
2023/12/05 02:44:48;;;;;;;24.02;15.80;;;;;;;-0.04;81.23;97226.31;4970709;28;20475;-70
2023/12/05 02:47:14;;;;;;;23.38;20.55;;;;;;;0.06;81.71;97225.09;4952812;28;20105;-70
2023/12/05 02:49:39;;;;;;;23.80;19.42;;;;;;;0.10;80.94;97239.53;4970465;28;20031;-71
2023/12/05 02:52:05;;;;;;;23.00;19.85;;;;;;;0.05;81.86;97236.72;4951001;28;20105;-70
2023/12/05 02:54:30;;;;;;;23.75;20.63;;;;;;;0.00;82.12;97227.53;4970772;28;20059;-71
2023/12/05 02:56:55;;;;;;;23.52;19.30;;;;;;;0.06;81.46;97220.63;4978729;28;20047;-70
2023/12/05 02:59:21;;;;;;;23.02;20.20;;;;;;;0.10;81.65;97227.13;4955694;28;20027;-71
2023/12/05 03:01:46;;;;;;;24.35;21.50;;;;;;;0.13;81.80;97231.22;4972569;28;20051;-71
2023/12/05 03:04:12;;;;;;;26.45;22.23;;;;;;;0.13;81.81;97226.72;4965059;28;20093;-71
2023/12/05 03:06:37;;;;;;;25.77;21.98;;;;;;;0.14;81.74;97227.56;4969006;28;20042;-72
2023/12/05 03:09:03;;;;;;;26.25;22.38;;;;;;;0.08;81.82;97212.47;4939162;28;20027;-72
2023/12/05 03:11:29;;;;;;;26.52;21.77;;;;;;;0.05;82.19;97218.19;4949871;28;20400;-72
2023/12/05 03:13:55;;;;;;;27.95;22.15;;;;;;;0.08;82.46;97207.19;4971425;28;20030;-72
2023/12/05 03:16:20;;;;;;;27.70;23.42;;;;;;;0.23;82.44;97221.03;4947845;28;20043;-72
2023/12/05 03:18:45;;;;;;;25.75;22.77;;;;;;;0.01;82.04;97167.47;4971573;28;20114;-72
2023/12/05 03:21:16;;;;;;;27.08;23.65;;;;;;;0.30;82.71;97206.78;4945846;29;20495;-72
2023/12/05 03:23:42;;;;;;;25.27;22.45;;;;;;;0.25;82.65;97197.81;4966439;28;20030;-72
2023/12/05 03:26:07;;;;;;;25.70;22.20;;;;;;;0.32;83.16;97209.22;4969140;28;20173;-71
2023/12/05 03:28:33;;;;;;;27.02;23.45;;;;;;;0.32;83.47;97209.22;4967490;28;20034;-71
2023/12/05 03:30:58;;;;;;;24.95;22.30;;;;;;;0.43;82.97;97219.19;4933727;28;20492;-71
2023/12/05 03:33:23;;;;;;;28.25;22.42;;;;;;;0.38;83.93;97195.16;4950327;28;20034;-72
2023/12/05 03:35:49;;;;;;;33.90;26.45;;;;;;;0.38;83.66;97203.09;4931326;28;20117;-72
2023/12/05 03:38:14;;;;;;;38.58;28.83;;;;;;;0.39;84.19;97215.34;4971194;28;20035;-71
2023/12/05 03:40:39;;;;;;;37.35;27.80;;;;;;;0.42;83.41;97209.63;4972590;28;20029;-71
2023/12/05 03:43:05;;;;;;;33.80;27.38;;;;;;;0.48;83.84;97211.47;4949281;28;20562;-70
2023/12/05 03:45:30;;;;;;;34.38;27.15;;;;;;;0.39;83.63;97204.75;4968450;28;20034;-70
2023/12/05 03:47:55;;;;;;;31.23;24.58;;;;;;;0.45;83.94;97209.22;4970879;28;20061;-70
2023/12/05 03:50:21;;;;;;;32.75;26.33;;;;;;;0.42;84.46;97201.69;4965628;28;20037;-72
2023/12/05 03:52:47;;;;;;;29.23;24.05;;;;;;;0.49;84.23;97200.66;4971721;28;20089;-70
2023/12/05 03:55:12;;;;;;;28.45;24.48;;;;;;;0.57;85.16;97196.97;4961155;28;20018;-70
2023/12/05 03:57:37;;;;;;;29.15;24.17;;;;;;;0.56;84.72;97195.38;4968528;28;20111;-70
2023/12/05 04:00:03;;;;;;;28.77;24.10;;;;;;;0.54;84.49;97176.19;4968253;28;20030;-71
2023/12/05 04:02:36;;;;;;;28.50;24.73;;;;;;;0.65;84.85;97196.78;4969857;28;20038;-70
2023/12/05 04:05:02;;;;;;;29.63;24.55;;;;;;;0.58;85.20;97188.03;4967096;28;20093;-71
2023/12/05 04:07:27;;;;;;;30.67;25.85;;;;;;;0.71;85.08;97195.94;4954462;28;20034;-70
2023/12/05 04:09:52;;;;;;;34.13;27.45;;;;;;;0.77;85.06;97213.63;4972581;28;20046;-70
2023/12/05 04:12:18;;;;;;;30.48;25.75;;;;;;;0.75;84.59;97213.03;4966174;28;20030;-70
2023/12/05 04:14:43;;;;;;;34.90;27.42;;;;;;;0.78;85.65;97220.59;4952273;28;20557;-71
2023/12/05 04:17:09;;;;;;;33.75;28.08;;;;;;;0.82;85.68;97215.69;4930881;28;20069;-71
2023/12/05 04:19:34;;;;;;;32.88;28.17;;;;;;;0.81;85.28;97209.56;4967592;28;20042;-70
2023/12/05 04:21:59;;;;;;;31.92;26.90;;;;;;;0.82;85.63;97216.50;4954207;28;20483;-70
2023/12/05 04:24:25;;;;;;;31.02;26.30;;;;;;;0.83;84.58;97207.53;4947959;28;20055;-71
2023/12/05 04:26:50;;;;;;;31.15;27.55;;;;;;;0.89;84.87;97211.19;4969689;28;20382;-71
2023/12/05 04:29:15;;;;;;;32.70;26.67;;;;;;;0.93;85.11;97212.41;4962413;28;20047;-71
2023/12/05 04:31:41;;;;;;;32.10;26.77;;;;;;;0.96;84.67;97215.44;4970693;28;20031;-71
2023/12/05 04:34:06;;;;;;;31.52;27.20;;;;;;;0.97;85.14;97197.72;4968378;28;20062;-71
2023/12/05 04:36:32;;;;;;;28.40;25.08;;;;;;;0.97;85.40;97214.44;4967902;28;20030;-71
2023/12/05 04:38:57;;;;;;;31.08;26.45;;;;;;;1.03;85.62;97205.63;4967825;28;20483;-71
2023/12/05 04:41:22;;;;;;;31.83;26.60;;;;;;;1.07;85.37;97209.50;4950140;28;20077;-71
2023/12/05 04:43:48;;;;;;;32.38;27.80;;;;;;;1.01;85.79;97199.72;4946523;28;20050;-71
2023/12/05 04:46:13;;;;;;;31.25;27.33;;;;;;;1.10;85.07;97210.91;4971282;28;20027;-71
2023/12/05 04:48:38;;;;;;;31.33;27.60;;;;;;;1.07;84.89;97204.22;4969293;28;20038;-71
2023/12/05 04:51:04;;;;;;;30.70;26.65;;;;;;;1.13;85.04;97213.97;4971151;28;20493;-71
2023/12/05 04:53:29;;;;;;;32.25;27.63;;;;;;;1.14;84.87;97215.63;4966777;28;20130;-71
2023/12/05 04:55:55;;;;;;;32.38;27.92;;;;;;;1.12;85.57;97222.94;4972368;28;20046;-72
2023/12/05 04:58:20;;;;;;;31.25;26.92;;;;;;;1.13;85.08;97219.28;4963895;28;20043;-71
2023/12/05 05:00:45;;;;;;;31.88;26.67;;;;;;;1.19;84.53;97214.97;4971573;28;20019;-71
2023/12/05 05:03:11;;;;;;;32.22;28.73;;;;;;;1.16;84.82;97208.25;4947496;29;20468;-71
2023/12/05 05:05:37;;;;;;;31.48;27.05;;;;;;;1.15;84.68;97213.75;4952809;28;20470;-72
2023/12/05 05:08:02;;;;;;;33.03;27.60;;;;;;;1.14;84.92;97210.31;4933927;28;20035;-72
2023/12/05 05:10:27;;;;;;;31.95;28.08;;;;;;;1.24;85.69;97215.13;4954926;28;20030;-72
2023/12/05 05:12:53;;;;;;;35.13;28.98;;;;;;;1.22;85.02;97207.41;4965444;28;20415;-72
2023/12/05 05:15:18;;;;;;;33.97;29.30;;;;;;;1.22;84.44;97212.72;4955048;28;20034;-72
2023/12/05 05:17:44;;;;;;;35.50;29.88;;;;;;;1.21;84.69;97210.28;4969855;28;20407;-73
2023/12/05 05:20:09;;;;;;;35.28;29.30;;;;;;;1.29;85.35;97216.16;4971331;28;20035;-73
2023/12/05 05:22:35;;;;;;;32.20;28.73;;;;;;;1.19;84.96;97202.50;4968579;28;20050;-73
2023/12/05 05:25:00;;;;;;;34.90;29.58;;;;;;;1.31;84.44;97208.78;4938984;28;20023;-73
2023/12/05 05:27:25;;;;;;;38.55;31.48;;;;;;;1.23;84.73;97190.50;4970810;28;20089;-73
2023/12/05 05:29:51;;;;;;;36.53;30.02;;;;;;;1.32;84.79;97207.78;4971149;28;20037;-72
2023/12/05 05:32:16;;;;;;;34.47;30.70;;;;;;;1.14;85.44;97173.19;4972096;28;20484;-73
2023/12/05 05:34:41;;;;;;;34.25;28.95;;;;;;;1.18;85.01;97179.69;4972124;28;20027;-72
2023/12/05 05:37:07;;;;;;;36.53;31.08;;;;;;;1.27;85.31;97194.34;4967823;28;20066;-74
2023/12/05 05:39:32;;;;;;;34.10;28.73;;;;;;;1.20;85.64;97182.94;4972240;28;20026;-74
2023/12/05 05:41:58;;;;;;;35.58;30.65;;;;;;;1.23;84.93;97193.13;4966278;28;20090;-74
2023/12/05 05:44:23;;;;;;;36.60;31.35;;;;;;;1.32;84.38;97197.19;4950362;28;20034;-74
2023/12/05 05:46:49;;;;;;;36.85;31.23;;;;;;;1.26;84.79;97186.59;4972089;28;20097;-75
2023/12/05 05:49:14;;;;;;;35.30;28.80;;;;;;;1.30;85.31;97195.75;4970982;28;20066;-74
2023/12/05 05:51:39;;;;;;;35.05;30.50;;;;;;;1.37;85.89;97204.50;4969136;28;20039;-74
2023/12/05 05:54:05;;;;;;;35.88;31.98;;;;;;;1.36;85.93;97197.56;4970701;28;20031;-74
2023/12/05 05:56:30;;;;;;;48.40;38.08;;;;;;;1.27;85.44;97189.03;4954219;28;20038;-74
2023/12/05 05:58:55;;;;;;;44.08;35.90;;;;;;;1.28;86.08;97179.25;4948544;28;20030;-73
2023/12/05 06:01:21;;;;;;;38.65;34.00;;;;;;;1.30;86.04;97187.81;4970716;28;20038;-74
2023/12/05 06:03:46;;;;;;;36.88;32.50;;;;;;;1.40;86.24;97201.44;4964241;28;20135;-74
2023/12/05 06:06:12;;;;;;;39.83;31.98;;;;;;;1.32;85.99;97191.88;4930612;29;20419;-73
2023/12/05 06:08:37;;;;;;;35.42;29.98;;;;;;;1.39;86.01;97197.16;4970417;28;20031;-73
2023/12/05 06:11:03;;;;;;;34.85;30.02;;;;;;;1.42;85.12;97202.03;4953146;29;20098;-73
2023/12/05 06:13:28;;;;;;;32.55;28.60;;;;;;;1.54;85.56;97215.44;4954774;28;20030;-74
2023/12/05 06:15:53;;;;;;;39.45;32.25;;;;;;;1.53;85.28;97208.50;4958185;28;20037;-74
2023/12/05 06:18:19;;;;;;;37.42;31.50;;;;;;;1.51;85.94;97191.97;4973808;28;20073;-73
2023/12/05 06:20:44;;;;;;;37.60;30.75;;;;;;;1.57;84.99;97209.69;4974164;28;20118;-73
2023/12/05 06:23:10;;;;;;;36.20;31.20;;;;;;;1.59;85.83;97212.97;4953440;28;20101;-73
2023/12/05 06:25:36;;;;;;;37.78;30.30;;;;;;;1.63;85.67;97214.16;4959920;28;20130;-73
2023/12/05 06:28:01;;;;;;;40.25;30.25;;;;;;;1.58;85.74;97203.38;4957517;28;20027;-73
2023/12/05 06:30:27;;;;;;;37.20;33.13;;;;;;;1.67;85.52;97225.97;4973769;28;20046;-73
2023/12/05 06:32:52;;;;;;;41.28;34.63;;;;;;;1.71;85.97;97219.22;4957705;28;20027;-73
2023/12/05 06:35:17;;;;;;;38.05;31.27;;;;;;;1.73;85.28;97225.13;4973671;28;20399;-74
2023/12/05 06:37:43;;;;;;;37.78;31.67;;;;;;;1.69;85.61;97208.81;4957341;28;20034;-73
2023/12/05 06:40:08;;;;;;;35.50;30.65;;;;;;;1.76;85.64;97222.06;4970554;28;20039;-74
2023/12/05 06:42:34;;;;;;;33.75;28.55;;;;;;;1.77;86.41;97226.34;4956880;28;20030;-73
2023/12/05 06:45:00;;;;;;;35.50;29.70;;;;;;;1.80;85.35;97220.59;4973571;28;20446;-73
2023/12/05 06:47:25;;;;;;;38.03;30.73;;;;;;;1.74;86.19;97210.84;4973300;28;20031;-74
2023/12/05 06:49:51;;;;;;;34.67;29.85;;;;;;;1.84;85.88;97213.84;4970279;28;20619;-73
2023/12/05 06:52:16;;;;;;;37.67;29.55;;;;;;;1.82;85.79;97218.56;4951727;28;20157;-73
2023/12/05 06:54:41;;;;;;;36.45;30.42;;;;;;;1.78;85.84;97217.34;4973492;28;20041;-74
2023/12/05 06:57:07;;;;;;;37.75;30.95;;;;;;;1.77;86.28;97210.41;4973185;28;20676;-73
2023/12/05 06:59:32;;;;;;;38.53;31.55;;;;;;;1.76;86.09;97208.78;4966937;28;20039;-73
2023/12/05 07:01:58;;;;;;;35.25;29.77;;;;;;;1.89;85.95;97222.78;4973497;28;20027;-73
2023/12/05 07:04:23;;;;;;;36.28;29.92;;;;;;;1.79;86.03;97208.38;4972977;28;20061;-73
2023/12/05 07:06:48;;;;;;;38.53;31.65;;;;;;;1.93;86.47;97236.47;4972896;28;20455;-73
2023/12/05 07:09:14;;;;;;;36.50;31.13;;;;;;;1.85;86.28;97218.13;4973676;28;20117;-73
2023/12/05 07:11:39;;;;;;;35.83;30.08;;;;;;;1.94;86.07;97241.53;4967787;28;20105;-73
2023/12/05 07:14:05;;;;;;;38.63;31.75;;;;;;;1.98;85.72;97233.97;4973029;28;20045;-74
2023/12/05 07:16:30;;;;;;;36.85;31.83;;;;;;;2.01;85.72;97241.50;4949200;28;20023;-73
2023/12/05 07:18:56;;;;;;;39.08;32.25;;;;;;;2.01;86.05;97244.97;4957133;28;20027;-73
2023/12/05 07:21:22;;;;;;;40.30;31.00;;;;;;;1.96;85.93;97238.69;4955975;28;20059;-75
2023/12/05 07:23:47;;;;;;;40.55;32.63;;;;;;;1.99;86.57;97240.91;4952971;28;20510;-74
2023/12/05 07:26:12;;;;;;;35.70;30.77;;;;;;;2.03;86.02;97252.75;4956991;28;20122;-73
2023/12/05 07:28:38;;;;;;;36.45;30.77;;;;;;;1.93;86.51;97225.84;4972616;28;20034;-74
2023/12/05 07:31:03;;;;;;;36.50;30.60;;;;;;;2.07;85.59;97253.94;4976289;28;20030;-75
2023/12/05 07:33:29;;;;;;;37.58;31.27;;;;;;;2.04;85.84;97235.75;4950653;28;20042;-75
2023/12/05 07:35:55;;;;;;;40.63;32.53;;;;;;;2.13;86.10;97241.63;4976890;28;20085;-75
2023/12/05 07:38:20;;;;;;;36.75;31.08;;;;;;;2.19;86.03;97257.53;4946791;28;20046;-75
2023/12/05 07:40:45;;;;;;;40.40;31.17;;;;;;;2.18;85.81;97250.59;4972619;28;20035;-75
2023/12/05 07:43:11;;;;;;;36.88;31.33;;;;;;;2.23;85.95;97248.09;4961154;28;20550;-75
2023/12/05 07:45:36;;;;;;;36.38;29.13;;;;;;;2.27;85.73;97259.91;4949655;28;20030;-75
2023/12/05 07:48:02;;;;;;;35.53;29.98;;;;;;;2.21;84.82;97244.84;4955914;28;20046;-74
2023/12/05 07:50:27;;;;;;;36.05;29.73;;;;;;;2.35;85.42;97264.97;4966067;28;20035;-74
2023/12/05 07:52:53;;;;;;;35.58;29.67;;;;;;;2.32;85.00;97257.44;4953206;28;20118;-74
2023/12/05 07:55:18;;;;;;;35.47;30.65;;;;;;;2.40;85.15;97257.19;4952893;28;20069;-74
2023/12/05 07:57:44;;;;;;;36.88;31.15;;;;;;;2.43;85.03;97270.00;4969665;28;20506;-75
2023/12/05 08:00:16;;;;;;;34.33;29.23;;;;;;;2.48;85.33;97267.53;4953357;28;20031;-73
2023/12/05 08:02:44;;;;;;;31.83;28.05;;;;;;;2.45;85.42;97254.66;4953818;28;20134;-74
2023/12/05 08:05:10;;;;;;;35.42;29.25;;;;;;;2.56;85.90;97264.63;4969228;28;20081;-74
2023/12/05 08:07:36;;;;;;;31.58;28.17;;;;;;;2.46;86.42;97264.28;4936145;28;20038;-74
2023/12/05 08:10:02;;;;;;;35.92;29.40;;;;;;;2.64;86.17;97271.50;4968007;28;20083;-75
2023/12/05 08:12:27;;;;;;;35.85;29.17;;;;;;;2.68;85.65;97276.16;4970515;28;20039;-74
2023/12/05 08:14:53;;;;;;;33.53;28.83;;;;;;;2.73;85.97;97275.53;4972211;28;20042;-74
2023/12/05 08:17:18;;;;;;;32.08;26.65;;;;;;;2.73;86.39;97276.31;4962944;28;20039;-75
2023/12/05 08:19:43;;;;;;;32.45;27.65;;;;;;;2.76;86.22;97275.88;4955889;28;20025;-74
2023/12/05 08:22:09;;;;;;;32.53;27.08;;;;;;;2.90;85.83;97287.22;4968724;28;20459;-74
2023/12/05 08:24:34;;;;;;;36.65;30.10;;;;;;;2.95;85.42;97283.91;4965751;28;20042;-74
2023/12/05 08:27:00;;;;;;;37.05;30.92;;;;;;;3.04;85.71;97282.59;4968528;28;20459;-74
2023/12/05 08:29:25;;;;;;;34.75;27.90;;;;;;;3.07;85.64;97271.53;4953767;28;20051;-74
2023/12/05 08:31:50;;;;;;;34.92;27.63;;;;;;;3.15;85.27;97285.34;4971458;28;20034;-74
2023/12/05 08:34:16;;;;;;;31.25;27.27;;;;;;;3.08;85.16;97283.78;4971423;28;20114;-74
2023/12/05 08:36:44;;;;;;;32.95;26.95;;;;;;;3.11;85.25;97272.69;4965023;28;20035;-73
2023/12/05 08:39:11;;;;;;;30.05;26.20;;;;;;;3.19;84.91;97286.53;4949695;28;20483;-74
2023/12/05 08:41:36;;;;;;;31.65;27.15;;;;;;;3.24;85.24;97289.38;4955373;28;20031;-74
2023/12/05 08:44:02;;;;;;;38.83;26.92;;;;;;;3.13;85.03;97275.94;4955520;28;20479;-74
2023/12/05 08:46:27;;;;;;;34.25;26.77;;;;;;;3.23;84.65;97294.88;4961503;28;20042;-74
2023/12/05 08:48:53;;;;;;;30.10;24.75;;;;;;;3.24;85.12;97288.53;4971553;28;20030;-73
2023/12/05 08:51:18;;;;;;;29.40;25.60;;;;;;;3.27;84.60;97288.09;4971486;28;20047;-73
2023/12/05 08:53:44;;;;;;;34.05;25.25;;;;;;;3.25;84.41;97290.97;4968736;28;20102;-73
2023/12/05 08:56:09;;;;;;;29.23;25.33;;;;;;;3.30;84.02;97287.66;4953664;28;20060;-73
2023/12/05 08:58:35;;;;;;;30.77;25.65;;;;;;;3.30;84.46;97291.13;4979367;28;20027;-74
2023/12/05 09:01:00;;;;;;;35.90;28.75;;;;;;;3.32;84.27;97293.56;4969700;28;20495;-74
2023/12/05 09:03:25;;;;;;;30.75;26.35;;;;;;;3.34;84.23;97294.97;4952162;28;20031;-73
2023/12/05 09:05:52;;;;;;;30.98;25.00;;;;;;;3.33;83.90;97288.03;4969165;28;20069;-73
2023/12/05 09:08:17;;;;;;;30.55;26.55;;;;;;;3.37;83.47;97293.72;4935435;28;20522;-74
2023/12/05 09:10:42;;;;;;;30.92;25.08;;;;;;;3.24;84.47;97294.69;4972376;28;20038;-73
2023/12/05 09:13:08;;;;;;;27.15;23.00;;;;;;;3.20;83.98;97290.81;4955114;28;20018;-74
2023/12/05 09:15:33;;;;;;;31.08;25.67;;;;;;;3.32;83.93;97293.56;4953093;28;20043;-74
2023/12/05 09:17:58;;;;;;;27.42;23.00;;;;;;;3.31;83.59;97295.41;4951357;28;20093;-74
2023/12/05 09:20:24;;;;;;;27.95;24.35;;;;;;;3.36;83.19;97302.75;4954791;28;20035;-74
2023/12/05 09:22:49;;;;;;;33.30;25.83;;;;;;;3.28;83.78;97300.38;4972306;28;20069;-73
2023/12/05 09:25:14;;;;;;;32.25;25.42;;;;;;;3.26;84.19;97297.94;4953377;28;20479;-73
2023/12/05 09:27:40;;;;;;;27.90;24.05;;;;;;;3.18;83.66;97306.19;4970741;28;20034;-73
2023/12/05 09:30:06;;;;;;;29.98;26.52;;;;;;;3.26;83.54;97307.75;4954171;28;20380;-73
2023/12/05 09:32:31;;;;;;;33.35;25.73;;;;;;;3.21;84.05;97304.94;4937860;28;20041;-74
2023/12/05 09:34:56;;;;;;;33.53;26.30;;;;;;;3.31;83.68;97303.38;4969419;28;20042;-73
2023/12/05 09:37:22;;;;;;;30.02;25.27;;;;;;;3.28;83.63;97292.38;4966936;28;20030;-73
2023/12/05 09:39:47;;;;;;;29.67;24.50;;;;;;;3.42;83.31;97307.19;4954088;28;20031;-74
2023/12/05 09:42:13;;;;;;;30.55;25.45;;;;;;;3.36;83.76;97302.75;4972010;28;20521;-74
2023/12/05 09:44:43;;;;;;;28.00;24.48;;;;;;;3.45;83.61;97296.09;4954589;28;20093;-74
2023/12/05 09:47:09;;;;;;;28.75;24.25;;;;;;;3.54;83.50;97292.09;4958913;28;20046;-73
2023/12/05 09:49:35;;;;;;;26.83;23.15;;;;;;;3.53;82.83;97293.13;4970171;28;20035;-73
2023/12/05 09:52:01;;;;;;;25.98;22.85;;;;;;;3.56;82.89;97286.56;4975264;28;20057;-73
2023/12/05 09:54:26;;;;;;;26.50;23.23;;;;;;;3.65;82.35;97291.34;4963854;28;20039;-73
2023/12/05 09:56:55;;;;;;;24.20;21.02;;;;;;;3.63;82.37;97277.47;4971585;28;20113;-73
2023/12/05 09:59:21;;;;;;;26.77;23.23;;;;;;;3.77;82.19;97294.09;4956913;28;20050;-74
2023/12/05 10:01:46;;;;;;;26.08;22.58;;;;;;;3.78;82.35;97301.84;4974371;28;20502;-73
2023/12/05 10:04:16;;;;;;;24.75;21.17;;;;;;;3.71;81.98;97300.31;4973430;28;20057;-74
2023/12/05 10:06:42;;;;;;;24.45;21.25;;;;;;;3.88;82.02;97301.31;4971212;28;20038;-73
2023/12/05 10:09:08;;;;;;;26.25;20.73;;;;;;;3.86;82.01;97304.22;4983534;28;20375;-73
2023/12/05 10:11:34;;;;;;;23.50;20.02;;;;;;;3.88;81.47;97303.97;4972332;28;20106;-73
2023/12/05 10:13:59;;;;;;;23.80;21.13;;;;;;;3.95;81.85;97302.88;4953788;28;20578;-74
2023/12/05 10:16:27;;;;;;;24.20;20.60;;;;;;;3.98;81.39;97296.28;4957578;28;20037;-73
2023/12/05 10:18:52;;;;;;;26.55;21.10;;;;;;;3.95;81.14;97281.56;4954154;28;20045;-73
2023/12/05 10:21:18;;;;;;;23.05;19.77;;;;;;;4.15;81.24;97295.41;4957959;28;20487;-73
2023/12/05 10:23:43;;;;;;;23.25;19.55;;;;;;;4.39;80.33;97287.53;4955632;28;20023;-73
2023/12/05 10:26:09;;;;;;;21.17;18.73;;;;;;;4.43;80.64;97284.19;4973932;28;20093;-73
2023/12/05 10:28:50;;;;;;;23.55;17.52;;;;;;;4.52;79.81;97289.97;4955519;28;20097;-73
2023/12/05 10:31:17;;;;;;;20.70;17.25;;;;;;;4.56;79.51;97281.28;4969672;28;20121;-73
2023/12/05 10:33:42;;;;;;;25.60;20.35;;;;;;;4.56;80.22;97283.16;4973626;28;20027;-73
2023/12/05 10:36:11;;;;;;;22.38;17.98;;;;;;;4.68;79.81;97273.31;4954780;28;20499;-73
2023/12/05 10:38:36;;;;;;;24.63;18.92;;;;;;;4.68;79.20;97290.13;4971466;28;20050;-73
2023/12/05 10:41:02;;;;;;;22.98;17.80;;;;;;;4.73;79.09;97284.13;4974785;28;20506;-74
2023/12/05 10:43:30;;;;;;;24.13;19.73;;;;;;;4.69;79.12;97285.63;4972672;28;20030;-73
2023/12/05 10:45:56;;;;;;;24.58;19.75;;;;;;;4.52;79.02;97271.31;4974469;28;20116;-73
2023/12/05 10:48:24;;;;;;;21.80;19.50;;;;;;;4.54;79.07;97290.56;4954756;28;20446;-73
2023/12/05 10:50:53;;;;;;;24.55;20.23;;;;;;;4.42;79.04;97271.06;4968358;28;20035;-73
2023/12/05 10:53:18;;;;;;;21.63;18.90;;;;;;;4.42;79.40;97271.06;4971702;28;20019;-73
2023/12/05 10:55:44;;;;;;;22.13;18.77;;;;;;;4.39;79.29;97282.19;4957163;28;20410;-73
2023/12/05 10:58:10;;;;;;;21.58;18.98;;;;;;;4.49;79.54;97293.09;4971609;28;20023;-73
2023/12/05 11:00:36;;;;;;;21.95;19.52;;;;;;;4.49;78.81;97282.44;4955690;28;20042;-73
2023/12/05 11:03:05;;;;;;;21.88;19.10;;;;;;;4.65;78.88;97292.44;4956798;28;20026;-74
2023/12/05 11:05:31;;;;;;;23.05;18.92;;;;;;;4.63;78.74;97295.34;4977312;28;20452;-73
2023/12/05 11:07:57;;;;;;;23.13;20.02;;;;;;;4.50;78.30;97279.56;4955091;28;20034;-74
2023/12/05 11:10:24;;;;;;;22.50;19.33;;;;;;;4.58;78.13;97286.38;4973351;28;20031;-73
2023/12/05 11:12:50;;;;;;;22.35;19.73;;;;;;;4.54;78.90;97295.91;4972443;28;20022;-73
2023/12/05 11:15:18;;;;;;;24.38;20.05;;;;;;;4.51;78.78;97299.00;4959640;28;20436;-74
2023/12/05 11:17:50;;;;;;;26.73;19.17;;;;;;;4.42;79.00;97287.06;4954903;28;20395;-74